Time;durP1;ratioP1;P1;durP2;ratioP2;P2;SDS_P1;SDS_P2;PMS_P1;PMS_P2;Temp;Humidity;BMP_temperature;BMP_pressure;BME280_temperature;BME280_humidity;BME280_pressure;Samples;Min_cycle;Max_cycle;Signal;HPM_P1;HPM_P2
2024/01/31 00:02:15;;;;;;;0.10;0.10;;;4.90;99.90;;;;;;5109445;27;20039;-73
2024/01/31 00:04:41;;;;;;;0.10;0.10;;;5.00;99.90;;;;;;5100987;27;20672;-73
2024/01/31 00:07:06;;;;;;;1.40;0.35;;;4.90;99.90;;;;;;5080203;27;20488;-73
2024/01/31 00:09:32;;;;;;;0.10;0.10;;;4.90;99.90;;;;;;5111399;27;20496;-73
2024/01/31 00:11:58;;;;;;;0.45;0.10;;;4.90;99.90;;;;;;5105309;27;20040;-72
2024/01/31 00:14:24;;;;;;;1.15;0.25;;;4.90;99.90;;;;;;5094119;27;20118;-73
2024/01/31 00:16:51;;;;;;;0.35;0.35;;;4.90;99.90;;;;;;5090284;27;20031;-73
2024/01/31 00:19:16;;;;;;;0.10;0.10;;;5.00;99.90;;;;;;5073755;27;20080;-74
2024/01/31 00:21:42;;;;;;;0.20;0.20;;;4.90;99.90;;;;;;5084076;27;20082;-73
2024/01/31 00:24:09;;;;;;;0.10;0.10;;;5.00;99.90;;;;;;5095154;28;20038;-74
2024/01/31 00:26:35;;;;;;;0.10;0.10;;;4.90;99.90;;;;;;5094200;27;20031;-72
2024/01/31 00:29:01;;;;;;;0.40;0.40;;;5.00;99.90;;;;;;5076845;27;20448;-73
2024/01/31 00:31:27;;;;;;;0.10;0.10;;;5.00;99.90;;;;;;5100323;27;20047;-74
2024/01/31 00:33:54;;;;;;;0.80;0.25;;;4.90;99.90;;;;;;5108103;27;20059;-73
2024/01/31 00:36:19;;;;;;;0.20;0.20;;;5.00;99.90;;;;;;5111615;27;20096;-72
2024/01/31 00:38:45;;;;;;;0.10;0.10;;;5.00;99.90;;;;;;5092904;28;20471;-73
2024/01/31 00:41:11;;;;;;;0.00;0.00;;;5.10;99.90;;;;;;5088248;28;20390;-72
2024/01/31 00:43:36;;;;;;;0.17;0.17;;;5.10;99.90;;;;;;5089299;27;20044;-74
2024/01/31 00:46:05;;;;;;;0.20;0.20;;;5.00;99.90;;;;;;5095176;27;20035;-73
2024/01/31 00:48:32;;;;;;;0.08;0.08;;;5.00;99.90;;;;;;5111708;27;20038;-73
2024/01/31 00:50:58;;;;;;;0.10;0.10;;;5.10;99.90;;;;;;5090486;28;20075;-72
2024/01/31 00:53:24;;;;;;;0.10;0.10;;;5.10;99.90;;;;;;5087109;28;20752;-73
2024/01/31 00:55:49;;;;;;;0.10;0.10;;;5.20;99.90;;;;;;5093967;28;20038;-72
2024/01/31 00:58:15;;;;;;;0.10;0.10;;;5.10;99.90;;;;;;5114028;27;20101;-72
2024/01/31 01:00:40;;;;;;;0.20;0.20;;;5.10;99.90;;;;;;5089960;27;20498;-74
2024/01/31 01:03:06;;;;;;;0.15;0.15;;;5.10;99.90;;;;;;5079069;27;20096;-73
2024/01/31 01:05:32;;;;;;;0.10;0.10;;;5.10;99.90;;;;;;5097687;27;20036;-73
2024/01/31 01:07:58;;;;;;;0.10;0.10;;;5.00;99.90;;;;;;5095996;28;20541;-72
2024/01/31 01:10:24;;;;;;;0.13;0.13;;;5.00;99.90;;;;;;5097206;28;20383;-73
2024/01/31 01:12:50;;;;;;;0.00;0.00;;;5.10;99.90;;;;;;5094564;28;20077;-73
2024/01/31 01:15:18;;;;;;;0.10;0.10;;;5.00;99.90;;;;;;5091856;27;20069;-73
2024/01/31 01:17:44;;;;;;;0.05;0.05;;;5.10;99.90;;;;;;5090538;27;20415;-73
2024/01/31 01:20:10;;;;;;;0.10;0.10;;;5.10;99.90;;;;;;5095662;28;20035;-73
2024/01/31 01:22:42;;;;;;;0.10;0.10;;;5.10;99.90;;;;;;5108547;27;20413;-74
2024/01/31 01:25:09;;;;;;;0.10;0.10;;;5.10;99.90;;;;;;5107628;27;20039;-74
2024/01/31 01:27:34;;;;;;;0.10;0.10;;;5.10;99.90;;;;;;5091975;28;20089;-74
2024/01/31 01:30:00;;;;;;;0.10;0.10;;;5.10;99.90;;;;;;5088452;27;20436;-73
2024/01/31 01:32:26;;;;;;;4.50;0.40;;;5.10;99.90;;;;;;5100227;27;20035;-74
2024/01/31 01:34:51;;;;;;;0.10;0.10;;;5.10;99.90;;;;;;5116194;27;20075;-73
2024/01/31 01:37:17;;;;;;;0.10;0.10;;;5.10;99.90;;;;;;5109347;27;20047;-75
2024/01/31 01:39:45;;;;;;;0.00;0.00;;;5.10;99.90;;;;;;5110216;27;20043;-74
2024/01/31 01:42:11;;;;;;;0.10;0.10;;;5.00;99.90;;;;;;5100629;27;20039;-74
2024/01/31 01:44:44;;;;;;;0.32;0.32;;;5.00;99.90;;;;;;5109256;27;20063;-76
2024/01/31 01:47:10;;;;;;;0.10;0.10;;;5.00;99.90;;;;;;5100031;27;20122;-75
2024/01/31 01:49:37;;;;;;;8.88;0.47;;;5.00;99.90;;;;;;5093033;28;20035;-74
2024/01/31 01:52:03;;;;;;;0.10;0.10;;;5.00;99.90;;;;;;5108613;27;20036;-74
2024/01/31 01:54:29;;;;;;;0.10;0.10;;;4.90;99.90;;;;;;5104328;27;20035;-73
2024/01/31 01:56:55;;;;;;;0.10;0.10;;;5.00;99.90;;;;;;5106085;27;20390;-72
2024/01/31 01:59:21;;;;;;;0.10;0.10;;;5.00;99.90;;;;;;5091644;27;20032;-72
2024/01/31 02:01:46;;;;;;;10.52;0.32;;;5.00;99.90;;;;;;5089304;27;20135;-72
2024/01/31 02:04:12;;;;;;;0.10;0.10;;;5.10;99.90;;;;;;5112598;27;20470;-73
2024/01/31 02:06:38;;;;;;;0.10;0.10;;;5.10;99.90;;;;;;5094586;28;20057;-74
2024/01/31 02:09:04;;;;;;;0.10;0.10;;;5.10;99.90;;;;;;5073670;28;20031;-74
2024/01/31 02:11:31;;;;;;;0.10;0.10;;;5.10;99.90;;;;;;5092700;28;20040;-74
2024/01/31 02:13:58;;;;;;;0.25;0.25;;;5.10;99.90;;;;;;5091379;28;20043;-74
2024/01/31 02:16:24;;;;;;;0.00;0.00;;;5.10;99.90;;;;;;5114429;27;20065;-73
2024/01/31 02:18:50;;;;;;;0.10;0.10;;;5.00;99.90;;;;;;5089946;27;20070;-73
2024/01/31 02:21:16;;;;;;;0.10;0.10;;;5.00;99.90;;;;;;5108074;27;20078;-74
2024/01/31 02:23:42;;;;;;;0.10;0.10;;;5.00;99.90;;;;;;5086383;28;20035;-73
2024/01/31 02:26:07;;;;;;;0.10;0.10;;;5.00;99.90;;;;;;5108087;27;20050;-73
2024/01/31 02:28:33;;;;;;;0.10;0.10;;;5.00;99.90;;;;;;5090040;28;20066;-73
2024/01/31 02:30:58;;;;;;;0.10;0.10;;;4.90;99.90;;;;;;5086957;27;20038;-74
2024/01/31 02:33:24;;;;;;;0.10;0.10;;;4.90;99.90;;;;;;5090385;27;20044;-74
2024/01/31 02:35:50;;;;;;;0.10;0.10;;;4.90;99.90;;;;;;5109871;27;20093;-74
2024/01/31 02:38:15;;;;;;;0.00;0.00;;;4.90;99.90;;;;;;5086185;28;20047;-74
2024/01/31 02:40:41;;;;;;;0.10;0.10;;;4.90;99.90;;;;;;5090451;28;20134;-75
2024/01/31 02:43:06;;;;;;;0.90;0.73;;;4.90;99.90;;;;;;5110160;27;20051;-75
2024/01/31 02:45:33;;;;;;;0.00;0.00;;;4.90;99.90;;;;;;5088307;28;20040;-75
2024/01/31 02:47:59;;;;;;;0.17;0.17;;;4.80;99.90;;;;;;5089291;28;20047;-75
2024/01/31 02:50:26;;;;;;;0.17;0.17;;;4.90;99.90;;;;;;5075580;28;20527;-75
2024/01/31 02:52:52;;;;;;;0.10;0.10;;;4.80;99.90;;;;;;5106977;27;20047;-74
2024/01/31 02:55:18;;;;;;;0.10;0.10;;;4.80;99.90;;;;;;5086609;27;20050;-74
2024/01/31 02:57:43;;;;;;;0.10;0.10;;;4.80;99.90;;;;;;5109060;27;20070;-73
2024/01/31 03:00:11;;;;;;;0.00;0.00;;;4.80;99.90;;;;;;5108205;28;20031;-73
2024/01/31 03:02:39;;;;;;;0.20;0.13;;;4.70;99.90;;;;;;5087009;28;20089;-74
2024/01/31 03:05:06;;;;;;;0.05;0.05;;;4.80;99.90;;;;;;5095064;28;20500;-74
2024/01/31 03:07:31;;;;;;;0.10;0.10;;;4.80;99.90;;;;;;5079164;28;20039;-73
2024/01/31 03:09:57;;;;;;;0.13;0.13;;;4.80;99.90;;;;;;5098210;28;20050;-75
2024/01/31 03:12:22;;;;;;;0.10;0.10;;;4.80;99.90;;;;;;5112862;28;20470;-76
2024/01/31 03:14:48;;;;;;;0.10;0.10;;;4.80;99.90;;;;;;5090016;28;20400;-76
2024/01/31 03:17:13;;;;;;;0.10;0.10;;;4.90;99.90;;;;;;5098440;27;20451;-77
2024/01/31 03:19:39;;;;;;;0.15;0.15;;;4.80;99.90;;;;;;5077883;28;20047;-75
2024/01/31 03:22:05;;;;;;;0.30;0.30;;;4.90;99.90;;;;;;5102725;27;20043;-76
2024/01/31 03:24:31;;;;;;;0.10;0.10;;;4.80;99.90;;;;;;5109525;27;20081;-75
2024/01/31 03:26:56;;;;;;;0.10;0.10;;;4.80;99.90;;;;;;5102176;27;20387;-75
2024/01/31 03:29:22;;;;;;;0.00;0.00;;;4.80;99.90;;;;;;5095664;27;20545;-76
2024/01/31 03:31:48;;;;;;;0.10;0.10;;;4.70;99.90;;;;;;5117058;27;20062;-76
2024/01/31 03:34:14;;;;;;;0.10;0.10;;;4.70;99.90;;;;;;5110922;27;20039;-75
2024/01/31 03:36:39;;;;;;;0.08;0.08;;;4.70;99.90;;;;;;5092098;28;20032;-76
2024/01/31 03:39:05;;;;;;;0.10;0.10;;;4.70;99.90;;;;;;5089639;28;20436;-76
2024/01/31 03:41:30;;;;;;;0.17;0.17;;;4.60;99.90;;;;;;5092961;27;20126;-75
2024/01/31 03:43:56;;;;;;;0.10;0.10;;;4.60;99.90;;;;;;5090691;28;20090;-75
2024/01/31 03:46:22;;;;;;;0.10;0.10;;;4.60;99.90;;;;;;5101415;27;20390;-75
2024/01/31 03:48:48;;;;;;;0.10;0.10;;;4.70;99.90;;;;;;5077486;27;20069;-75
2024/01/31 03:51:21;;;;;;;0.10;0.10;;;4.70;99.90;;;;;;5091648;28;20039;-75
2024/01/31 03:53:48;;;;;;;0.10;0.10;;;4.70;99.90;;;;;;5119390;27;20130;-75
2024/01/31 03:56:14;;;;;;;0.10;0.10;;;4.70;99.90;;;;;;5098728;28;20528;-75
2024/01/31 03:58:40;;;;;;;0.15;0.15;;;4.70;99.90;;;;;;5097685;28;20044;-76
2024/01/31 04:01:06;;;;;;;0.10;0.10;;;4.70;99.90;;;;;;5096167;27;20035;-76
2024/01/31 04:03:32;;;;;;;0.00;0.00;;;4.70;99.90;;;;;;5094862;27;20159;-77
2024/01/31 04:05:58;;;;;;;0.20;0.20;;;4.70;99.90;;;;;;5091778;27;20114;-76
2024/01/31 04:08:24;;;;;;;0.20;0.20;;;4.80;99.90;;;;;;5077987;27;20038;-77
2024/01/31 04:10:49;;;;;;;0.20;0.20;;;4.70;99.90;;;;;;5077647;27;20028;-77
2024/01/31 04:13:15;;;;;;;0.10;0.10;;;4.80;99.90;;;;;;5095694;27;20036;-76
2024/01/31 04:15:40;;;;;;;0.10;0.10;;;4.80;99.90;;;;;;5100470;28;20039;-77
2024/01/31 04:18:07;;;;;;;0.10;0.10;;;4.70;99.90;;;;;;5081795;28;20117;-77
2024/01/31 04:20:34;;;;;;;0.35;0.30;;;4.80;99.90;;;;;;5094249;28;20055;-76
2024/01/31 04:23:00;;;;;;;0.10;0.10;;;4.80;99.90;;;;;;5091245;28;20086;-76
2024/01/31 04:25:26;;;;;;;0.10;0.10;;;4.80;99.90;;;;;;5093261;27;20102;-77
2024/01/31 04:27:51;;;;;;;0.08;0.03;;;4.80;99.90;;;;;;5108302;27;20452;-77
2024/01/31 04:30:18;;;;;;;0.05;0.05;;;4.90;99.90;;;;;;5103961;27;20527;-76
2024/01/31 04:32:43;;;;;;;0.10;0.10;;;4.80;99.90;;;;;;5083426;28;20039;-76
2024/01/31 04:35:09;;;;;;;0.00;0.00;;;4.90;99.90;;;;;;5089755;28;20039;-79
2024/01/31 04:37:36;;;;;;;2.55;1.75;;;4.80;99.90;;;;;;5098165;28;20467;-79
2024/01/31 04:40:02;;;;;;;0.30;0.30;;;4.90;99.90;;;;;;5096450;27;20133;-78
2024/01/31 04:42:28;;;;;;;0.00;0.00;;;4.80;99.90;;;;;;5093501;27;20031;-79
2024/01/31 04:44:53;;;;;;;0.10;0.10;;;4.90;99.90;;;;;;5081590;28;20508;-78
2024/01/31 04:47:19;;;;;;;0.10;0.10;;;4.90;99.90;;;;;;5103728;27;20557;-78
2024/01/31 04:49:45;;;;;;;0.22;0.22;;;4.80;99.90;;;;;;5088249;28;20071;-76
2024/01/31 04:52:12;;;;;;;0.10;0.10;;;4.80;99.90;;;;;;5102290;27;20035;-77
2024/01/31 04:54:39;;;;;;;0.10;0.10;;;4.90;99.90;;;;;;5091888;28;20050;-79
2024/01/31 04:57:05;;;;;;;0.10;0.10;;;4.80;99.90;;;;;;5090945;27;20036;-78
2024/01/31 04:59:30;;;;;;;0.25;0.17;;;4.90;99.90;;;;;;5110073;27;20042;-77
2024/01/31 05:01:56;;;;;;;0.13;0.13;;;4.90;99.90;;;;;;5067225;28;20043;-78
2024/01/31 05:04:21;;;;;;;0.10;0.10;;;4.90;99.90;;;;;;5093162;28;20043;-79
2024/01/31 05:06:49;;;;;;;0.10;0.10;;;4.80;99.90;;;;;;5093762;28;20529;-78
2024/01/31 05:09:14;;;;;;;0.10;0.10;;;4.90;99.90;;;;;;5093104;28;20051;-78
2024/01/31 05:11:40;;;;;;;0.17;0.17;;;4.90;99.90;;;;;;5089803;27;20498;-78
2024/01/31 05:14:05;;;;;;;0.10;0.10;;;4.80;99.90;;;;;;5098798;28;20513;-79
2024/01/31 05:16:31;;;;;;;0.10;0.10;;;4.80;99.90;;;;;;5085981;28;20038;-77
2024/01/31 05:18:56;;;;;;;0.13;0.13;;;4.90;99.90;;;;;;5110923;27;20443;-78
2024/01/31 05:21:22;;;;;;;0.20;0.20;;;4.80;99.90;;;;;;5091213;28;20035;-78
2024/01/31 05:23:47;;;;;;;0.10;0.10;;;4.80;99.90;;;;;;5109596;27;20074;-78
2024/01/31 05:26:13;;;;;;;0.10;0.10;;;4.80;99.90;;;;;;5114980;27;20122;-79
2024/01/31 05:28:39;;;;;;;0.03;0.03;;;4.80;99.90;;;;;;5102366;27;20130;-78
2024/01/31 05:31:04;;;;;;;0.20;0.10;;;4.70;99.90;;;;;;5094879;28;20035;-78
2024/01/31 05:33:30;;;;;;;0.43;0.20;;;4.80;99.90;;;;;;5110027;28;20054;-80
2024/01/31 05:35:58;;;;;;;0.43;0.32;;;4.70;99.90;;;;;;5094562;28;20078;-78
2024/01/31 05:38:24;;;;;;;0.17;0.17;;;4.70;99.90;;;;;;5083417;28;20031;-77
2024/01/31 05:40:49;;;;;;;0.32;0.30;;;4.60;99.90;;;;;;5112118;27;20046;-77
2024/01/31 05:43:15;;;;;;;0.20;0.20;;;4.60;99.90;;;;;;5071625;28;20497;-79
2024/01/31 05:45:40;;;;;;;0.60;0.32;;;4.60;99.90;;;;;;5102554;27;20517;-78
2024/01/31 05:48:06;;;;;;;0.13;0.13;;;4.70;99.90;;;;;;5091789;28;20036;-79
2024/01/31 05:50:32;;;;;;;2.17;0.43;;;4.70;99.90;;;;;;5091823;28;20070;-80
2024/01/31 05:53:05;;;;;;;0.20;0.20;;;4.80;99.90;;;;;;5085456;28;20169;-77
2024/01/31 05:55:31;;;;;;;0.55;0.52;;;4.70;99.90;;;;;;5102202;27;20039;-79
2024/01/31 05:58:00;;;;;;;0.20;0.20;;;4.80;99.90;;;;;;5096299;28;20039;-78
2024/01/31 06:00:26;;;;;;;0.45;0.45;;;4.70;99.90;;;;;;5092913;28;20486;-79
2024/01/31 06:02:52;;;;;;;0.10;0.10;;;4.70;99.90;;;;;;5107543;28;20031;-79
2024/01/31 06:05:18;;;;;;;0.60;0.30;;;4.70;99.90;;;;;;5104663;27;20046;-80
2024/01/31 06:07:43;;;;;;;0.30;0.30;;;4.80;99.90;;;;;;5105503;27;20036;-79
2024/01/31 06:10:09;;;;;;;0.30;0.30;;;4.70;99.90;;;;;;5109812;27;20081;-80
2024/01/31 06:12:35;;;;;;;0.10;0.10;;;4.70;99.90;;;;;;5090262;28;20155;-79
2024/01/31 06:15:00;;;;;;;0.10;0.10;;;4.70;99.90;;;;;;5078036;28;20031;-81
2024/01/31 06:17:26;;;;;;;0.20;0.20;;;4.70;99.90;;;;;;5079250;28;20063;-79
2024/01/31 06:19:51;;;;;;;1.08;0.52;;;4.70;99.90;;;;;;5099270;28;20489;-79
2024/01/31 06:22:17;;;;;;;1.25;0.43;;;4.70;99.90;;;;;;5086621;28;20088;-79
2024/01/31 06:24:43;;;;;;;0.17;0.17;;;4.70;99.90;;;;;;5119683;27;20504;-79
2024/01/31 06:27:08;;;;;;;1.38;1.10;;;4.70;99.90;;;;;;5089179;28;20595;-79
2024/01/31 06:29:34;;;;;;;0.20;0.20;;;4.70;99.90;;;;;;5107354;28;20031;-78
2024/01/31 06:32:00;;;;;;;0.20;0.20;;;4.70;99.90;;;;;;5093946;27;20040;-77
2024/01/31 06:34:26;;;;;;;5.05;0.40;;;4.70;99.90;;;;;;5083358;27;20024;-77
2024/01/31 06:36:52;;;;;;;0.43;0.20;;;4.70;99.90;;;;;;5095580;28;20038;-77
2024/01/31 06:39:18;;;;;;;0.35;0.30;;;4.70;99.90;;;;;;5096401;27;20047;-80
2024/01/31 06:41:57;;;;;;;0.40;0.40;;;4.70;99.90;;;;;;5089947;27;20393;-78
2024/01/31 06:44:22;;;;;;;0.10;0.10;;;4.70;99.90;;;;;;5095075;27;20035;-78
2024/01/31 06:47:18;;;;;;;0.38;0.38;;;4.70;99.90;;;;;;5081399;28;20035;-79
2024/01/31 06:49:43;;;;;;;0.52;0.52;;;4.70;99.90;;;;;;5095586;27;20103;-80
2024/01/31 06:52:10;;;;;;;1.15;0.77;;;4.80;99.90;;;;;;5095073;27;20036;-79
2024/01/31 06:54:36;;;;;;;0.47;0.47;;;4.80;99.90;;;;;;5094567;28;20039;-80
2024/01/31 06:57:01;;;;;;;0.60;0.60;;;4.80;99.90;;;;;;5117881;27;20043;-79
2024/01/31 06:59:27;;;;;;;0.35;0.30;;;4.80;99.90;;;;;;5104979;28;20039;-80
2024/01/31 07:01:52;;;;;;;2.22;0.40;;;4.80;99.90;;;;;;5097031;28;20535;-77
2024/01/31 07:04:19;;;;;;;0.90;0.63;;;4.80;99.90;;;;;;5120230;27;20036;-81
2024/01/31 07:06:45;;;;;;;1.15;1.05;;;4.80;99.90;;;;;;5117548;28;20406;-79
2024/01/31 07:09:10;;;;;;;2.33;0.70;;;4.90;99.90;;;;;;5108835;28;20031;-82
2024/01/31 07:11:36;;;;;;;0.25;0.25;;;4.90;99.90;;;;;;5099971;28;20494;-84
2024/01/31 07:14:01;;;;;;;2.15;0.50;;;4.90;99.90;;;;;;5103798;28;20035;-80
2024/01/31 07:16:28;;;;;;;0.75;0.75;;;4.90;99.90;;;;;;5111103;28;20039;-80
2024/01/31 07:18:54;;;;;;;0.20;0.20;;;4.90;99.90;;;;;;5111298;28;20088;-81
2024/01/31 07:21:24;;;;;;;0.55;0.55;;;4.90;99.90;;;;;;5092171;28;20044;-84
2024/01/31 07:23:51;;;;;;;0.30;0.30;;;4.90;99.90;;;;;;5077818;28;20036;-79
2024/01/31 07:26:26;;;;;;;1.02;0.55;;;4.90;99.90;;;;;;5101612;28;20118;-82
2024/01/31 07:28:52;;;;;;;0.52;0.52;;;4.90;99.90;;;;;;5087493;28;20989;-80
2024/01/31 07:31:18;;;;;;;0.30;0.30;;;4.90;99.90;;;;;;5075390;28;20081;-82
2024/01/31 07:33:43;;;;;;;0.30;0.30;;;4.90;99.90;;;;;;5089246;28;20077;-78
2024/01/31 07:36:09;;;;;;;0.68;0.68;;;4.90;99.90;;;;;;5112425;28;20478;-82
2024/01/31 07:38:35;;;;;;;2.13;0.70;;;4.90;99.90;;;;;;5097507;28;20043;-81
2024/01/31 07:41:01;;;;;;;1.08;0.70;;;4.90;99.90;;;;;;5098877;28;20079;-80
2024/01/31 07:43:27;;;;;;;0.20;0.20;;;4.90;99.90;;;;;;5073477;28;20123;-80
2024/01/31 07:45:53;;;;;;;1.85;1.33;;;4.90;99.90;;;;;;5093618;28;20043;-80
2024/01/31 07:48:18;;;;;;;0.52;0.30;;;4.80;99.90;;;;;;5115969;28;20036;-80
2024/01/31 07:50:45;;;;;;;0.80;0.38;;;4.90;99.90;;;;;;5108744;28;20050;-80
2024/01/31 07:53:10;;;;;;;0.40;0.40;;;4.90;99.90;;;;;;5106128;28;20108;-80
2024/01/31 07:55:36;;;;;;;0.50;0.50;;;4.90;99.90;;;;;;5087825;28;20044;-80
2024/01/31 07:58:03;;;;;;;1.98;0.90;;;4.90;99.90;;;;;;5087682;28;20503;-80
2024/01/31 08:00:28;;;;;;;0.28;0.22;;;4.90;99.90;;;;;;5108099;27;20438;-80
2024/01/31 08:02:54;;;;;;;0.17;0.17;;;4.90;99.90;;;;;;5087058;28;20044;-79
2024/01/31 08:05:19;;;;;;;0.30;0.30;;;4.90;99.90;;;;;;5094456;27;20043;-78
2024/01/31 08:07:45;;;;;;;0.47;0.47;;;4.90;99.90;;;;;;5099180;28;20031;-78
2024/01/31 08:10:12;;;;;;;0.25;0.25;;;4.90;99.90;;;;;;5089018;27;20033;-78
2024/01/31 08:12:38;;;;;;;0.52;0.40;;;5.00;99.90;;;;;;5112214;27;20047;-77
2024/01/31 08:15:04;;;;;;;0.17;0.17;;;5.00;99.90;;;;;;5092374;27;20120;-79
2024/01/31 08:17:29;;;;;;;0.52;0.47;;;5.00;99.90;;;;;;5112867;27;20076;-79
2024/01/31 08:19:55;;;;;;;0.55;0.55;;;5.00;99.90;;;;;;5091896;28;20032;-76
2024/01/31 08:22:20;;;;;;;1.00;0.35;;;5.10;99.90;;;;;;5091774;27;20493;-76
2024/01/31 08:24:46;;;;;;;0.20;0.20;;;5.10;99.90;;;;;;5073033;28;20062;-77
2024/01/31 08:27:12;;;;;;;0.63;0.30;;;5.10;99.90;;;;;;5091476;28;20039;-77
2024/01/31 08:29:38;;;;;;;0.35;0.35;;;5.10;99.90;;;;;;5108741;27;20075;-79
2024/01/31 08:32:04;;;;;;;0.47;0.40;;;5.10;99.90;;;;;;5099195;28;20046;-77
2024/01/31 08:34:29;;;;;;;0.52;0.35;;;5.20;99.90;;;;;;5086204;28;20031;-78
2024/01/31 08:36:55;;;;;;;0.80;0.40;;;5.10;99.90;;;;;;5085549;28;20116;-77
2024/01/31 08:39:22;;;;;;;0.10;0.10;;;5.20;99.90;;;;;;5085908;28;20035;-76
2024/01/31 08:41:48;;;;;;;1.02;0.38;;;5.20;99.90;;;;;;5077064;27;20107;-78
2024/01/31 08:44:15;;;;;;;3.03;0.85;;;5.20;99.90;;;;;;5097503;28;20044;-79
2024/01/31 08:46:40;;;;;;;0.30;0.30;;;5.20;99.90;;;;;;5087621;27;20312;-78
2024/01/31 08:49:06;;;;;;;16.35;1.00;;;5.20;99.90;;;;;;5090235;28;20401;-76
2024/01/31 08:51:33;;;;;;;0.20;0.20;;;5.30;99.90;;;;;;5085630;28;20478;-78
2024/01/31 08:53:58;;;;;;;0.82;0.35;;;5.30;99.90;;;;;;5084259;28;20075;-77
2024/01/31 08:56:24;;;;;;;0.43;0.20;;;5.30;99.90;;;;;;5092772;28;20513;-80
2024/01/31 08:58:50;;;;;;;0.28;0.28;;;5.40;99.90;;;;;;5102706;27;20059;-81
2024/01/31 09:01:15;;;;;;;0.32;0.32;;;5.40;99.90;;;;;;5090701;28;20576;-77
2024/01/31 09:03:41;;;;;;;0.32;0.10;;;5.40;99.90;;;;;;5081676;28;20040;-78
2024/01/31 09:06:06;;;;;;;0.80;0.30;;;5.40;99.90;;;;;;5110721;27;20489;-81
2024/01/31 09:08:32;;;;;;;0.68;0.30;;;5.40;99.90;;;;;;5110696;27;20521;-80
2024/01/31 09:10:58;;;;;;;0.17;0.17;;;5.40;99.90;;;;;;5102963;27;20040;-82
2024/01/31 09:13:24;;;;;;;0.20;0.20;;;5.40;99.90;;;;;;5091804;28;20047;-79
2024/01/31 09:15:50;;;;;;;0.63;0.50;;;5.50;99.90;;;;;;5086082;28;20482;-82
2024/01/31 09:18:15;;;;;;;11.07;0.57;;;5.50;99.90;;;;;;5106562;27;20047;-83
2024/01/31 09:20:41;;;;;;;0.10;0.10;;;5.50;99.90;;;;;;5092478;28;20446;-82
2024/01/31 09:23:06;;;;;;;0.70;0.40;;;5.60;99.90;;;;;;5107869;27;20078;-83
2024/01/31 09:25:33;;;;;;;0.28;0.28;;;5.60;99.90;;;;;;5086989;28;20359;-82
2024/01/31 09:27:58;;;;;;;0.52;0.45;;;5.60;99.90;;;;;;5087030;28;20046;-80
2024/01/31 09:30:24;;;;;;;0.13;0.13;;;5.60;99.90;;;;;;5090008;28;20036;-79
2024/01/31 09:32:49;;;;;;;0.52;0.52;;;5.60;99.90;;;;;;5110407;27;20038;-82
2024/01/31 09:35:15;;;;;;;0.88;0.82;;;5.70;99.90;;;;;;5087435;28;20504;-81
2024/01/31 09:37:41;;;;;;;0.65;0.60;;;5.70;99.90;;;;;;5093918;28;20050;-78
2024/01/31 09:40:07;;;;;;;5.03;0.85;;;5.80;99.90;;;;;;5105929;27;20039;-75
2024/01/31 09:42:33;;;;;;;2.55;1.00;;;5.80;99.90;;;;;;5080064;27;20440;-76
2024/01/31 09:45:01;;;;;;;0.30;0.30;;;5.90;99.90;;;;;;5103359;27;20032;-82
2024/01/31 09:47:28;;;;;;;0.63;0.57;;;5.90;99.90;;;;;;5075921;28;20038;-80
2024/01/31 09:49:55;;;;;;;0.40;0.40;;;5.90;99.90;;;;;;5087156;28;20085;-81
2024/01/31 09:52:27;;;;;;;0.22;0.22;;;6.00;99.90;;;;;;5086848;27;20061;-80
2024/01/31 09:54:57;;;;;;;0.90;0.65;;;6.00;99.90;;;;;;5090420;28;20044;-83
2024/01/31 09:57:24;;;;;;;0.88;0.40;;;6.00;99.90;;;;;;5086129;28;20138;-82
2024/01/31 09:59:51;;;;;;;0.68;0.25;;;6.10;99.90;;;;;;5099157;27;20516;-82
2024/01/31 10:02:17;;;;;;;1.65;0.80;;;6.10;99.90;;;;;;5097669;27;20078;-81
2024/01/31 10:04:49;;;;;;;0.28;0.28;;;6.10;99.90;;;;;;5088671;28;20177;-81
2024/01/31 10:07:22;;;;;;;;;;;6.10;99.90;;;;;;5092156;28;20039;-78
2024/01/31 10:09:48;;;;;;;0.73;0.30;;;6.00;99.90;;;;;;5082476;28;20401;-81
2024/01/31 10:12:15;;;;;;;1.00;0.40;;;6.10;99.90;;;;;;5072923;28;20048;-75
2024/01/31 10:14:42;;;;;;;0.55;0.55;;;6.00;99.90;;;;;;5077531;28;20028;-84
2024/01/31 10:17:07;;;;;;;1.40;0.85;;;6.10;99.90;;;;;;5100044;28;20086;-83
2024/01/31 10:19:33;;;;;;;0.10;0.10;;;6.10;99.90;;;;;;5080105;27;20070;-78
2024/01/31 10:21:59;;;;;;;0.43;0.43;;;6.10;99.90;;;;;;5091069;28;20390;-78
2024/01/31 10:24:24;;;;;;;0.40;0.40;;;6.10;99.90;;;;;;5112334;27;20390;-79
2024/01/31 10:26:50;;;;;;;1.35;0.22;;;6.10;99.90;;;;;;5087095;28;20037;-81
2024/01/31 10:29:18;;;;;;;0.30;0.30;;;6.10;99.90;;;;;;5105702;28;20044;-83
2024/01/31 10:31:46;;;;;;;0.32;0.25;;;6.20;99.90;;;;;;5110291;28;20043;-83
2024/01/31 10:34:13;;;;;;;0.52;0.40;;;6.20;99.90;;;;;;5089872;28;20538;-82
2024/01/31 10:36:40;;;;;;;3.47;0.80;;;6.20;99.90;;;;;;5072915;27;20506;-81
2024/01/31 10:39:09;;;;;;;0.93;0.40;;;6.20;99.90;;;;;;5096085;28;20036;-80
2024/01/31 10:41:35;;;;;;;0.60;0.60;;;6.20;99.90;;;;;;5085561;28;20047;-80
2024/01/31 10:44:03;;;;;;;1.27;0.68;;;6.30;99.90;;;;;;5104504;27;20075;-80
2024/01/31 10:46:29;;;;;;;0.35;0.30;;;6.20;99.90;;;;;;5105712;28;20108;-84
2024/01/31 10:48:55;;;;;;;0.93;0.50;;;6.30;99.90;;;;;;5068751;28;20118;-84
2024/01/31 10:51:22;;;;;;;0.20;0.20;;;6.30;99.90;;;;;;5095943;27;20043;-82
2024/01/31 10:53:49;;;;;;;4.50;0.95;;;6.30;99.90;;;;;;5092992;27;20045;-80
2024/01/31 10:56:17;;;;;;;2.28;1.15;;;6.30;99.90;;;;;;5092985;28;20430;-82
2024/01/31 10:58:44;;;;;;;0.30;0.30;;;6.30;99.90;;;;;;5092267;28;20035;-81
2024/01/31 11:01:14;;;;;;;0.10;0.10;;;6.30;99.90;;;;;;5084391;27;20043;-81
2024/01/31 11:03:45;;;;;;;1.88;1.10;;;6.30;99.90;;;;;;5091348;28;20071;-82
2024/01/31 11:06:11;;;;;;;0.73;0.57;;;6.30;99.90;;;;;;5070102;28;20096;-81
2024/01/31 11:08:40;;;;;;;2.50;0.75;;;6.30;99.90;;;;;;5085005;28;20462;-83
2024/01/31 11:11:11;;;;;;;0.52;0.35;;;6.30;99.90;;;;;;5096883;28;20556;-79
2024/01/31 11:13:37;;;;;;;0.60;0.60;;;6.30;99.90;;;;;;5092265;28;20031;-84
2024/01/31 11:16:04;;;;;;;0.40;0.40;;;6.30;99.90;;;;;;5080333;28;20044;-79
2024/01/31 11:18:31;;;;;;;2.30;0.95;;;6.30;99.90;;;;;;5085615;28;20085;-83
2024/01/31 11:20:57;;;;;;;0.32;0.20;;;6.40;99.90;;;;;;5084023;28;20054;-80
2024/01/31 11:23:25;;;;;;;1.90;0.90;;;6.40;99.90;;;;;;5091892;28;20044;-84
2024/01/31 11:25:51;;;;;;;2.30;1.08;;;6.40;99.90;;;;;;5084966;28;20062;-81
2024/01/31 11:28:18;;;;;;;0.63;0.20;;;6.40;99.90;;;;;;5105876;28;20036;-80
2024/01/31 11:30:50;;;;;;;4.80;1.08;;;6.50;99.90;;;;;;5104875;28;20379;-82
2024/01/31 11:33:16;;;;;;;0.60;0.60;;;6.40;99.90;;;;;;5082278;28;20052;-79
2024/01/31 11:35:41;;;;;;;1.75;0.75;;;6.50;99.90;;;;;;5074291;28;20406;-82
2024/01/31 11:38:08;;;;;;;1.45;0.28;;;6.50;99.90;;;;;;5110025;27;20775;-75
2024/01/31 11:40:34;;;;;;;1.70;1.00;;;6.60;99.90;;;;;;5093442;28;20169;-73
2024/01/31 11:43:00;;;;;;;0.98;0.93;;;6.60;99.90;;;;;;5087953;28;20109;-74
2024/01/31 11:45:26;;;;;;;0.73;0.73;;;6.70;99.90;;;;;;5087390;27;20216;-80
2024/01/31 11:47:56;;;;;;;1.77;1.17;;;6.80;99.90;;;;;;5091130;28;20046;-75
2024/01/31 11:50:22;;;;;;;0.57;0.57;;;6.80;99.90;;;;;;5110539;27;20510;-73
2024/01/31 11:52:49;;;;;;;0.77;0.63;;;6.80;99.90;;;;;;5107235;28;20486;-75
2024/01/31 11:55:26;;;;;;;0.57;0.57;;;6.90;99.90;;;;;;5082443;27;20195;-75
2024/01/31 11:57:52;;;;;;;0.22;0.22;;;6.90;99.90;;;;;;5087351;28;20398;-78
2024/01/31 12:00:18;;;;;;;1.10;1.10;;;6.90;99.90;;;;;;5105209;27;20100;-77
2024/01/31 12:02:47;;;;;;;2.35;0.63;;;6.90;99.90;;;;;;5093588;27;20044;-79
2024/01/31 12:05:13;;;;;;;2.67;0.68;;;6.90;99.90;;;;;;5091968;28;20367;-76
2024/01/31 12:07:38;;;;;;;0.50;0.50;;;6.90;99.90;;;;;;5092082;28;20039;-71
2024/01/31 12:10:07;;;;;;;0.93;0.80;;;6.90;99.90;;;;;;5084519;28;20241;-70
2024/01/31 12:12:34;;;;;;;0.30;0.30;;;6.90;99.90;;;;;;5087085;28;20046;-74
2024/01/31 12:15:00;;;;;;;1.20;0.50;;;6.90;99.90;;;;;;5092914;28;20110;-73
2024/01/31 12:17:27;;;;;;;0.57;0.57;;;6.90;99.90;;;;;;5107213;27;20134;-77
2024/01/31 12:20:08;;;;;;;0.40;0.40;;;7.00;99.90;;;;;;5092559;28;20066;-71
2024/01/31 12:22:34;;;;;;;0.88;0.88;;;7.00;99.90;;;;;;5088629;28;20040;-73
2024/01/31 12:25:03;;;;;;;0.57;0.57;;;7.00;99.90;;;;;;5115982;27;20062;-80
2024/01/31 12:27:29;;;;;;;0.77;0.70;;;7.00;99.90;;;;;;5087710;27;20092;-72
2024/01/31 12:29:56;;;;;;;0.45;0.40;;;7.00;99.90;;;;;;5088283;28;20036;-77
2024/01/31 12:32:25;;;;;;;1.70;1.00;;;7.00;99.90;;;;;;5090087;27;20042;-77
2024/01/31 12:34:51;;;;;;;2.90;1.10;;;6.90;99.90;;;;;;5095541;27;20367;-78
2024/01/31 12:37:17;;;;;;;0.52;0.52;;;6.90;99.90;;;;;;5083709;28;20038;-74
2024/01/31 12:39:42;;;;;;;0.75;0.75;;;6.90;99.90;;;;;;5083022;27;20478;-71
2024/01/31 12:42:09;;;;;;;0.95;0.88;;;6.90;99.90;;;;;;5085711;28;20045;-82
2024/01/31 12:44:35;;;;;;;1.77;0.80;;;6.90;99.90;;;;;;5094210;27;20126;-77
2024/01/31 12:47:05;;;;;;;1.65;0.90;;;7.00;99.90;;;;;;5109354;27;20116;-79
2024/01/31 12:49:38;;;;;;;0.68;0.68;;;6.90;99.90;;;;;;5096879;28;20035;-78
2024/01/31 12:52:04;;;;;;;0.82;0.68;;;6.90;99.90;;;;;;5088208;27;20080;-78
2024/01/31 12:54:29;;;;;;;0.63;0.63;;;7.00;99.90;;;;;;5089967;28;20040;-76